Time,TemperatureF,DewpointF,PressureIn,WindDirection,WindDirectionDegrees,WindSpeedMPH,WindSpeedGustMPH,Humidity,HourlyPrecipIn,Conditions,Clouds,dailyrainin,SoftwareType,DateUTC
2013-01-23 00:08:00,62.0,55.0,30.19,NE,52,0.0,0.0,79,0.00,,,0.00,weatherlink.com 1.10,2013-01-23 05:08:00,
2013-01-23 00:23:00,63.8,55.0,30.18,ENE,67,0.0,1.0,73,0.00,,,0.00,weatherlink.com 1.10,2013-01-23 05:23:00,
2013-01-23 00:38:00,64.7,55.0,30.18,NE,44,0.0,2.0,70,0.00,,,0.00,weatherlink.com 1.10,2013-01-23 05:38:00,
2013-01-23 00:53:00,65.1,54.0,30.19,ENE,72,0.0,0.0,68,0.00,,,0.00,weatherlink.com 1.10,2013-01-23 05:53:00,
2013-01-23 01:08:00,65.4,55.0,30.18,ENE,62,0.0,1.0,68,0.00,,,0.00,weatherlink.com 1.10,2013-01-23 06:08:00,
2013-01-23 01:23:00,65.3,54.0,30.18,NE,53,0.0,0.0,68,0.00,,,0.00,weatherlink.com 1.10,2013-01-23 06:23:00,
2013-01-23 01:38:00,65.5,54.0,30.18,ENE,57,0.0,0.0,67,0.00,,,0.00,weatherlink.com 1.10,2013-01-23 06:38:00,
2013-01-23 01:53:00,65.1,55.0,30.18,ENE,73,0.0,0.0,69,0.00,,,0.00,weatherlink.com 1.10,2013-01-23 06:53:00,
2013-01-23 02:08:00,64.9,55.0,30.18,ENE,62,0.0,0.0,70,0.00,,,0.00,weatherlink.com 1.10,2013-01-23 07:08:00,
2013-01-23 02:23:00,64.5,55.0,30.18,ENE,63,0.0,0.0,71,0.00,,,0.00,weatherlink.com 1.10,2013-01-23 07:23:00,
2013-01-23 02:38:00,64.5,55.0,30.18,ENE,65,0.0,0.0,71,0.00,,,0.00,weatherlink.com 1.10,2013-01-23 07:38:00,
2013-01-23 02:53:00,64.1,55.0,30.18,ENE,62,0.0,0.0,72,0.00,,,0.00,weatherlink.com 1.10,2013-01-23 07:53:00,
2013-01-23 03:08:00,63.1,56.0,30.19,ENE,64,0.0,0.0,78,0.00,,,0.00,weatherlink.com 1.10,2013-01-23 08:08:00,
2013-01-23 03:23:00,62.0,57.0,30.18,ESE,105,0.0,1.0,84,0.00,,,0.00,weatherlink.com 1.10,2013-01-23 08:23:00,
2013-01-23 03:38:00,61.0,58.0,30.18,East,85,0.0,0.0,88,0.00,,,0.00,weatherlink.com 1.10,2013-01-23 08:38:00,
2013-01-23 03:53:00,60.5,58.0,30.18,NE,46,0.0,0.0,90,0.00,,,0.00,weatherlink.com 1.10,2013-01-23 08:53:00,
2013-01-23 04:08:00,60.4,58.0,30.18,NW,309,0.0,0.0,91,0.00,,,0.00,weatherlink.com 1.10,2013-01-23 09:08:00,
2013-01-23 04:23:00,60.3,58.0,30.18,NW,309,0.0,0.0,92,0.00,,,0.00,weatherlink.com 1.10,2013-01-23 09:23:00,
2013-01-23 04:38:00,60.3,58.0,30.18,NNW,328,0.0,0.0,92,0.00,,,0.00,weatherlink.com 1.10,2013-01-23 09:38:00,
2013-01-23 04:53:00,60.1,58.0,30.18,NNW,328,0.0,0.0,92,0.00,,,0.00,weatherlink.com 1.10,2013-01-23 09:53:00,
2013-01-23 05:08:00,60.2,58.0,30.18,NW,311,0.0,0.0,91,0.00,,,0.00,weatherlink.com 1.10,2013-01-23 10:08:00,
2013-01-23 05:23:00,60.0,57.0,30.19,NE,41,0.0,0.0,90,0.00,,,0.00,weatherlink.com 1.10,2013-01-23 10:23:00,
2013-01-23 05:39:00,60.3,57.0,30.19,East,101,0.0,0.0,88,0.00,,,0.00,weatherlink.com 1.10,2013-01-23 10:39:00,
2013-01-23 05:54:00,60.2,56.0,30.20,WNW,301,0.0,0.0,87,0.00,,,0.00,weatherlink.com 1.10,2013-01-23 10:54:00,
2013-01-23 06:09:00,60.1,56.0,30.20,East,87,0.0,0.0,87,0.00,,,0.00,weatherlink.com 1.10,2013-01-23 11:09:00,
2013-01-23 06:24:00,60.1,56.0,30.21,East,84,0.0,0.0,87,0.00,,,0.00,weatherlink.com 1.10,2013-01-23 11:24:00,
2013-01-23 06:39:00,60.2,56.0,30.22,NNE,30,0.0,0.0,86,0.00,,,0.00,weatherlink.com 1.10,2013-01-23 11:39:00,
2013-01-23 06:54:00,60.2,56.0,30.21,ENE,58,0.0,0.0,86,0.00,,,0.00,weatherlink.com 1.10,2013-01-23 11:54:00,
2013-01-23 07:09:00,60.1,56.0,30.23,NE,46,0.0,1.0,85,0.00,,,0.00,weatherlink.com 1.10,2013-01-23 12:09:00,
2013-01-23 07:24:00,59.9,55.0,30.22,ENE,62,0.0,0.0,85,0.00,,,0.00,weatherlink.com 1.10,2013-01-23 12:24:00,
2013-01-23 07:39:00,59.9,55.0,30.23,ESE,103,0.0,1.0,85,0.00,,,0.00,weatherlink.com 1.10,2013-01-23 12:39:00,
2013-01-23 07:54:00,59.9,56.0,30.24,NE,54,0.0,1.0,86,0.00,,,0.00,weatherlink.com 1.10,2013-01-23 12:54:00,
2013-01-23 08:09:00,60.4,56.0,30.24,ENE,70,0.0,2.0,85,0.00,,,0.00,weatherlink.com 1.10,2013-01-23 13:09:00,
2013-01-23 08:24:00,60.8,56.0,30.24,ENE,71,0.0,0.0,84,0.00,,,0.00,weatherlink.com 1.10,2013-01-23 13:24:00,
2013-01-23 08:39:00,61.3,56.0,30.25,NE,36,0.0,0.0,83,0.00,,,0.00,weatherlink.com 1.10,2013-01-23 13:39:00,
2013-01-23 08:54:00,63.0,57.0,30.26,NNW,346,0.0,1.0,81,0.00,,,0.00,weatherlink.com 1.10,2013-01-23 13:54:00,
2013-01-23 09:09:00,64.4,57.0,30.26,NE,37,0.0,3.0,78,0.00,,,0.00,weatherlink.com 1.10,2013-01-23 14:09:00,
2013-01-23 09:24:00,64.8,58.0,30.27,NE,43,0.0,1.0,78,0.00,,,0.00,weatherlink.com 1.10,2013-01-23 14:24:00,
2013-01-23 09:39:00,64.9,58.0,30.27,ENE,65,0.0,1.0,77,0.00,,,0.00,weatherlink.com 1.10,2013-01-23 14:39:00,
2013-01-23 09:54:00,65.7,58.0,30.28,East,82,0.0,1.0,77,0.00,,,0.00,weatherlink.com 1.10,2013-01-23 14:54:00,
2013-01-23 10:09:00,65.6,58.0,30.27,NE,36,0.0,1.0,77,0.00,,,0.00,weatherlink.com 1.10,2013-01-23 15:09:00,
2013-01-23 10:24:00,66.7,59.0,30.28,NE,44,0.0,2.0,75,0.00,,,0.00,weatherlink.com 1.10,2013-01-23 15:24:00,
2013-01-23 10:39:00,67.3,59.0,30.28,NE,51,0.0,5.0,74,0.00,,,0.00,weatherlink.com 1.10,2013-01-23 15:39:00,
2013-01-23 10:54:00,68.9,60.0,30.27,NE,39,0.0,0.0,73,0.00,,,0.00,weatherlink.com 1.10,2013-01-23 15:54:00,
2013-01-23 11:09:00,69.8,59.0,30.27,West,280,0.0,2.0,69,0.00,,,0.00,weatherlink.com 1.10,2013-01-23 16:09:00,
2013-01-23 11:24:00,70.7,60.0,30.26,ENE,72,1.0,2.0,68,0.00,,,0.00,weatherlink.com 1.10,2013-01-23 16:24:00,
2013-01-23 11:39:00,72.1,60.0,30.26,NNE,23,0.0,2.0,66,0.00,,,0.00,weatherlink.com 1.10,2013-01-23 16:39:00,
2013-01-23 11:54:00,72.7,59.0,30.25,East,82,0.0,6.0,63,0.00,,,0.00,weatherlink.com 1.10,2013-01-23 16:54:00,
2013-01-23 12:09:00,72.9,58.0,30.25,North,6,3.0,6.0,59,0.00,,,0.00,weatherlink.com 1.10,2013-01-23 17:09:00,
2013-01-23 12:24:00,73.1,57.0,30.24,East,93,4.0,6.0,58,0.00,,,0.00,weatherlink.com 1.10,2013-01-23 17:24:00,
2013-01-23 12:39:00,73.2,57.0,30.23,NE,51,1.0,5.0,58,0.00,,,0.00,weatherlink.com 1.10,2013-01-23 17:39:00,
2013-01-23 12:54:00,72.9,56.0,30.22,ENE,65,0.0,7.0,56,0.00,,,0.00,weatherlink.com 1.10,2013-01-23 17:54:00,
2013-01-23 13:09:00,72.1,56.0,30.22,East,96,0.0,7.0,57,0.00,,,0.00,weatherlink.com 1.10,2013-01-23 18:09:00,
2013-01-23 13:24:00,73.4,56.0,30.21,NE,51,0.0,8.0,55,0.00,,,0.00,weatherlink.com 1.10,2013-01-23 18:24:00,
2013-01-23 13:39:00,72.8,56.0,30.21,East,85,0.0,5.0,55,0.00,,,0.00,weatherlink.com 1.10,2013-01-23 18:39:00,
2013-01-23 13:54:00,73.0,56.0,30.20,East,83,7.0,8.0,56,0.00,,,0.00,weatherlink.com 1.10,2013-01-23 18:54:00,
2013-01-23 14:09:00,73.8,57.0,30.20,ENE,75,5.0,9.0,55,0.00,,,0.00,weatherlink.com 1.10,2013-01-23 19:09:00,
2013-01-23 14:24:00,73.9,55.0,30.20,NE,49,1.0,4.0,52,0.00,,,0.00,weatherlink.com 1.10,2013-01-23 19:24:00,
2013-01-23 14:39:00,73.9,55.0,30.20,NE,41,3.0,8.0,52,0.00,,,0.00,weatherlink.com 1.10,2013-01-23 19:39:00,
2013-01-23 14:55:00,73.1,56.0,30.20,SE,131,4.0,6.0,55,0.00,,,0.00,weatherlink.com 1.10,2013-01-23 19:55:00,
2013-01-23 15:10:00,72.6,55.0,30.20,East,95,1.0,5.0,55,0.00,,,0.00,weatherlink.com 1.10,2013-01-23 20:10:00,
2013-01-23 15:25:00,72.9,56.0,30.20,East,79,3.0,11.0,55,0.00,,,0.00,weatherlink.com 1.10,2013-01-23 20:25:00,
2013-01-23 15:40:00,72.9,57.0,30.20,East,79,5.0,10.0,57,0.00,,,0.00,weatherlink.com 1.10,2013-01-23 20:40:00,
2013-01-23 15:55:00,73.2,56.0,30.21,ESE,120,6.0,9.0,55,0.00,,,0.00,weatherlink.com 1.10,2013-01-23 20:55:00,
2013-01-23 16:10:00,72.7,56.0,30.21,ENE,72,1.0,6.0,56,0.00,,,0.00,weatherlink.com 1.10,2013-01-23 21:10:00,
2013-01-23 16:25:00,72.6,56.0,30.21,ESE,106,0.0,7.0,57,0.00,,,0.00,weatherlink.com 1.10,2013-01-23 21:25:00,
2013-01-23 16:40:00,72.6,56.0,30.22,NE,49,3.0,8.0,56,0.00,,,0.00,weatherlink.com 1.10,2013-01-23 21:40:00,
2013-01-23 16:55:00,71.1,56.0,30.21,ESE,116,0.0,5.0,60,0.00,,,0.00,weatherlink.com 1.10,2013-01-23 21:55:00,
2013-01-23 17:10:00,70.9,56.0,30.22,East,96,4.0,7.0,59,0.00,,,0.00,weatherlink.com 1.10,2013-01-23 22:10:00,
2013-01-23 17:25:00,70.2,56.0,30.22,East,93,5.0,5.0,61,0.00,,,0.00,weatherlink.com 1.10,2013-01-23 22:25:00,
2013-01-23 17:40:00,69.6,56.0,30.22,East,101,3.0,6.0,62,0.00,,,0.00,weatherlink.com 1.10,2013-01-23 22:40:00,
2013-01-23 17:55:00,69.1,55.0,30.22,ENE,71,0.0,5.0,62,0.00,,,0.00,weatherlink.com 1.10,2013-01-23 22:55:00,
2013-01-23 18:10:00,68.4,56.0,30.22,ESE,106,0.0,3.0,64,0.00,,,0.00,weatherlink.com 1.10,2013-01-23 23:10:00,
2013-01-23 18:25:00,67.7,55.0,30.22,ENE,71,1.0,1.0,65,0.00,,,0.00,weatherlink.com 1.10,2013-01-23 23:25:00,
2013-01-23 18:40:00,67.1,56.0,30.22,ESE,106,0.0,1.0,67,0.00,,,0.00,weatherlink.com 1.10,2013-01-23 23:40:00,
2013-01-23 18:55:00,66.0,56.0,30.23,ESE,102,0.0,1.0,69,0.00,,,0.00,weatherlink.com 1.10,2013-01-23 23:55:00,
2013-01-23 19:10:00,64.8,56.0,30.23,ESE,115,0.0,1.0,73,0.00,,,0.00,weatherlink.com 1.10,2013-01-24 00:10:00,
2013-01-23 19:25:00,63.5,56.0,30.24,ESE,123,0.0,1.0,77,0.00,,,0.00,weatherlink.com 1.10,2013-01-24 00:25:00,
2013-01-23 19:40:00,62.7,56.0,30.24,ESE,108,0.0,1.0,80,0.00,,,0.00,weatherlink.com 1.10,2013-01-24 00:40:00,
2013-01-23 19:55:00,62.3,57.0,30.24,ENE,64,0.0,0.0,82,0.00,,,0.00,weatherlink.com 1.10,2013-01-24 00:55:00,
2013-01-23 20:10:00,63.2,58.0,30.25,East,98,0.0,1.0,82,0.00,,,0.00,weatherlink.com 1.10,2013-01-24 01:10:00,
2013-01-23 20:25:00,63.3,58.0,30.25,ENE,75,0.0,2.0,83,0.00,,,0.00,weatherlink.com 1.10,2013-01-24 01:25:00,
2013-01-23 20:40:00,62.9,58.0,30.25,ENE,61,0.0,1.0,83,0.00,,,0.00,weatherlink.com 1.10,2013-01-24 01:40:00,
2013-01-23 20:55:00,62.4,58.0,30.25,East,84,0.0,2.0,85,0.00,,,0.00,weatherlink.com 1.10,2013-01-24 01:55:00,
2013-01-23 21:10:00,62.0,58.0,30.25,ENE,58,0.0,2.0,85,0.00,,,0.00,weatherlink.com 1.10,2013-01-24 02:10:00,
2013-01-23 21:25:00,61.7,57.0,30.26,NE,51,0.0,1.0,84,0.00,,,0.00,weatherlink.com 1.10,2013-01-24 02:25:00,
2013-01-23 21:41:00,61.3,57.0,30.26,ENE,71,0.0,2.0,85,0.00,,,0.00,weatherlink.com 1.10,2013-01-24 02:41:00,
2013-01-23 21:55:00,60.8,56.0,30.26,ENE,58,0.0,1.0,85,0.00,,,0.00,weatherlink.com 1.10,2013-01-24 02:55:00,
2013-01-23 22:10:00,60.7,56.0,30.26,NNE,12,0.0,1.0,84,0.00,,,0.00,weatherlink.com 1.10,2013-01-24 03:10:00,
2013-01-23 22:25:00,60.3,56.0,30.26,NE,52,0.0,2.0,85,0.00,,,0.00,weatherlink.com 1.10,2013-01-24 03:25:00,
2013-01-23 22:40:00,59.9,55.0,30.26,ESE,110,0.0,1.0,85,0.00,,,0.00,weatherlink.com 1.10,2013-01-24 03:40:00,
2013-01-23 22:55:00,59.4,56.0,30.25,East,87,0.0,1.0,88,0.00,,,0.00,weatherlink.com 1.10,2013-01-24 03:55:00,
2013-01-23 23:11:00,58.7,55.0,30.25,East,98,0.0,0.0,87,0.00,,,0.00,weatherlink.com 1.10,2013-01-24 04:11:00,
2013-01-23 23:26:00,58.6,55.0,30.24,East,96,0.0,1.0,89,0.00,,,0.00,weatherlink.com 1.10,2013-01-24 04:26:00,
2013-01-23 23:41:00,57.4,55.0,30.25,East,96,0.0,0.0,90,0.00,,,0.00,weatherlink.com 1.10,2013-01-24 04:41:00,
2013-01-23 23:56:00,56.9,54.0,30.24,East,96,0.0,0.0,91,0.00,,,0.00,weatherlink.com 1.10,2013-01-24 04:56:00,